Time;durP1;ratioP1;P1;durP2;ratioP2;P2;SDS_P1;SDS_P2;PMS_P1;PMS_P2;Temp;Humidity;BMP_temperature;BMP_pressure;BME280_temperature;BME280_humidity;BME280_pressure;Samples;Min_cycle;Max_cycle;Signal;HPM_P1;HPM_P2
2021/11/21 00:00:52;;;;;;;16.43;12.03;;;;;;;1.72;84.95;99510.19;5100204;28;20216;-83
2021/11/21 00:03:36;;;;;;;15.13;11.87;;;;;;;1.73;84.73;99504.72;5098190;28;20250;-83
2021/11/21 00:06:37;;;;;;;16.23;12.50;;;;;;;1.73;84.74;99509.19;5105681;28;20219;-83
2021/11/21 00:09:10;;;;;;;15.37;11.80;;;;;;;1.75;85.69;99504.56;5115448;28;20164;-83
2021/11/21 00:11:47;;;;;;;15.03;11.63;;;;;;;1.73;84.90;99494.16;5115494;28;20176;-83
2021/11/21 00:14:35;;;;;;;15.03;11.80;;;;;;;1.73;85.09;99496.81;5116316;23;20216;-83
2021/11/21 00:17:13;;;;;;;15.27;12.07;;;;;;;1.78;84.92;99504.22;5103360;22;20288;-84
2021/11/21 00:19:58;;;;;;;16.20;11.50;;;;;;;1.68;85.70;99482.47;5106709;23;20596;-83
2021/11/21 00:22:52;;;;;;;13.67;10.30;;;;;;;1.82;85.00;99491.53;5115303;28;20185;-83
2021/11/21 00:25:21;;;;;;;14.07;10.53;;;;;;;1.82;84.77;99484.41;5098050;28;20203;-82
2021/11/21 00:31:16;;;;;;;14.97;10.93;;;;;;;1.57;85.21;99440.56;5064059;23;20220;-83
2021/11/21 00:34:06;;;;;;;12.07;9.90;;;;;;;1.82;85.17;99473.06;5051806;28;20230;-82
2021/11/21 00:37:09;;;;;;;11.93;9.57;;;;;;;1.89;85.10;99459.00;5052488;28;20221;-83
2021/11/21 00:40:15;;;;;;;12.13;9.00;;;;;;;2.01;84.81;99459.44;5052757;28;20217;-82
2021/11/21 00:43:01;;;;;;;11.17;9.70;;;;;;;2.01;84.95;99462.09;5059575;23;20285;-84
2021/11/21 00:45:46;;;;;;;12.60;9.73;;;;;;;2.00;85.12;99457.81;5087358;23;20232;-83
2021/11/21 00:48:54;;;;;;;11.93;9.43;;;;;;;2.02;84.52;99454.00;5101749;22;20244;-82
2021/11/21 00:52:08;;;;;;;12.17;9.53;;;;;;;2.00;84.06;99450.72;5101494;23;20234;-84
2021/11/21 00:54:56;;;;;;;13.63;10.17;;;;;;;2.00;84.36;99444.59;5067484;23;20262;-83
2021/11/21 00:57:43;;;;;;;9.70;8.70;;;;;;;1.97;84.88;99437.81;5095393;28;20181;-84
2021/11/21 01:00:31;;;;;;;12.50;8.73;;;;;;;1.89;84.30;99427.28;5107072;22;20269;-83
2021/11/21 01:03:09;;;;;;;10.87;8.60;;;;;;;1.92;84.99;99428.75;5078206;28;20562;-83
2021/11/21 01:05:56;;;;;;;10.77;8.97;;;;;;;1.92;85.04;99426.09;5117226;22;20223;-83
2021/11/21 01:08:34;;;;;;;10.03;8.83;;;;;;;1.93;84.98;99428.59;5094614;28;20205;-82
2021/11/21 01:11:19;;;;;;;10.30;8.60;;;;;;;1.77;84.75;99405.66;5106525;22;20237;-83
2021/11/21 01:14:08;;;;;;;10.50;8.30;;;;;;;1.72;84.91;99386.06;5091872;22;20225;-83
2021/11/21 01:17:11;;;;;;;11.43;8.10;;;;;;;1.91;84.80;99412.09;5048007;28;20228;-82
2021/11/21 01:19:47;;;;;;;11.70;8.70;;;;;;;1.81;85.15;99395.63;5071110;28;20225;-83
2021/11/21 01:22:23;;;;;;;11.20;8.67;;;;;;;1.88;84.68;99395.75;5071060;28;20723;-83
2021/11/21 01:24:59;;;;;;;12.07;9.00;;;;;;;1.81;84.81;99389.50;5070521;28;20228;-82
2021/11/21 01:27:33;;;;;;;11.87;8.60;;;;;;;1.71;85.05;99379.97;5071142;28;20226;-83
2021/11/21 01:30:47;;;;;;;12.50;8.43;;;;;;;1.77;84.48;99400.38;5072695;28;20268;-83
2021/11/21 01:33:37;;;;;;;11.87;9.50;;;;;;;1.66;85.20;99389.38;5084439;22;20240;-82
2021/11/21 01:36:11;;;;;;;11.27;8.47;;;;;;;1.72;85.53;99389.53;5078319;23;20288;-83
2021/11/21 01:38:51;;;;;;;11.93;8.77;;;;;;;1.80;84.85;99391.31;5073175;28;20213;-82
2021/11/21 01:41:56;;;;;;;12.60;9.30;;;;;;;1.76;85.13;99369.72;5071796;28;20220;-82
2021/11/21 01:44:31;;;;;;;10.63;8.77;;;;;;;1.84;85.26;99378.59;5072391;28;20225;-83
2021/11/21 01:47:22;;;;;;;10.83;8.30;;;;;;;1.92;85.37;99365.34;5083814;23;20229;-83
2021/11/21 01:50:11;;;;;;;10.43;8.77;;;;;;;1.99;84.74;99366.31;5076819;28;20627;-83
2021/11/21 01:52:40;;;;;;;11.60;8.97;;;;;;;1.99;84.80;99348.66;5091238;28;20224;-83
2021/11/21 01:55:38;;;;;;;10.63;8.80;;;;;;;2.00;84.56;99362.69;5091484;28;20255;-83
2021/11/21 01:58:22;;;;;;;12.10;9.03;;;;;;;2.06;84.54;99360.16;5099037;22;20232;-83
2021/11/21 02:01:04;;;;;;;12.80;9.27;;;;;;;2.08;85.12;99338.88;5093559;28;20185;-83
2021/11/21 02:03:48;;;;;;;11.33;8.93;;;;;;;2.19;84.67;99344.56;5098956;22;20239;-82
2021/11/21 02:06:31;;;;;;;11.27;9.43;;;;;;;2.26;84.79;99333.31;5092442;22;20225;-83
2021/11/21 02:09:23;;;;;;;11.87;8.80;;;;;;;2.36;84.70;99333.94;5071745;28;20229;-82
2021/11/21 02:12:01;;;;;;;10.63;8.53;;;;;;;2.30;83.99;99321.41;5072780;28;20204;-83
2021/11/21 02:14:31;;;;;;;10.20;8.37;;;;;;;2.31;84.43;99313.31;5088021;28;20228;-83
2021/11/21 02:17:14;;;;;;;11.13;8.43;;;;;;;2.47;84.36;99326.41;5070139;28;20221;-83
2021/11/21 02:19:42;;;;;;;9.83;8.17;;;;;;;2.52;83.92;99318.78;5085739;28;20225;-83
2021/11/21 02:22:13;;;;;;;9.97;8.37;;;;;;;2.63;83.94;99317.53;5102449;22;20237;-83
2021/11/21 02:24:42;;;;;;;9.20;7.80;;;;;;;2.57;84.14;99295.28;5072549;28;20229;-83
2021/11/21 02:27:34;;;;;;;12.27;7.90;;;;;;;2.71;83.72;99298.97;5090938;28;20248;-82
2021/11/21 02:30:14;;;;;;;10.40;8.20;;;;;;;2.78;84.04;99304.38;5098502;22;20228;-82
2021/11/21 02:32:51;;;;;;;9.00;7.40;;;;;;;2.82;84.20;99300.38;5057714;28;20236;-82
2021/11/21 02:35:20;;;;;;;10.20;7.97;;;;;;;2.83;83.91;99280.84;5072580;28;20224;-83
2021/11/21 02:38:02;;;;;;;9.10;7.40;;;;;;;2.88;83.25;99281.97;5074377;28;20264;-82
2021/11/21 02:40:28;;;;;;;10.70;7.87;;;;;;;3.01;83.40;99295.41;5071107;28;20224;-82
2021/11/21 02:42:56;;;;;;;9.70;7.77;;;;;;;2.95;83.57;99277.59;5090098;28;20204;-83
2021/11/21 02:45:23;;;;;;;9.43;7.50;;;;;;;3.13;83.49;99300.28;5072395;28;20193;-83
2021/11/21 02:47:58;;;;;;;9.17;7.60;;;;;;;3.16;83.65;99298.09;5090421;28;20258;-82
2021/11/21 02:50:35;;;;;;;10.20;8.13;;;;;;;3.24;83.25;99298.00;5077230;23;20239;-82
2021/11/21 02:53:18;;;;;;;10.37;8.00;;;;;;;3.32;82.96;99295.28;5078719;22;20581;-82
2021/11/21 02:55:57;;;;;;;10.20;7.80;;;;;;;3.33;82.90;99290.81;5081975;23;20543;-81
2021/11/21 02:58:26;;;;;;;9.20;7.03;;;;;;;3.36;82.93;99283.31;5057657;28;20267;-82
2021/11/21 03:01:16;;;;;;;8.50;7.37;;;;;;;3.41;82.84;99277.47;5091501;28;20184;-81
2021/11/21 03:04:01;;;;;;;9.53;7.43;;;;;;;3.44;83.08;99270.00;5067370;22;20542;-81
2021/11/21 03:06:51;;;;;;;8.67;7.20;;;;;;;3.48;83.09;99281.03;5051243;28;20293;-82
2021/11/21 03:09:23;;;;;;;9.60;7.63;;;;;;;3.47;83.25;99272.28;5051108;28;20292;-82
2021/11/21 03:12:19;;;;;;;9.50;7.93;;;;;;;3.50;83.05;99274.53;5049746;28;20253;-81
2021/11/21 03:14:51;;;;;;;9.27;7.73;;;;;;;3.53;83.33;99287.44;5128925;23;20637;-82
2021/11/21 03:17:35;;;;;;;11.60;8.27;;;;;;;3.59;83.07;99283.25;5085845;28;20240;-82
2021/11/21 03:20:16;;;;;;;11.33;8.37;;;;;;;3.61;83.07;99264.50;5085319;28;20224;-81
2021/11/21 03:22:46;;;;;;;8.90;7.77;;;;;;;3.63;83.12;99255.38;5085861;28;20224;-81
2021/11/21 03:25:17;;;;;;;8.57;7.67;;;;;;;3.69;82.88;99256.44;5070005;28;20225;-82
2021/11/21 03:27:52;;;;;;;9.33;7.93;;;;;;;3.68;82.50;99246.88;5085691;28;20234;-82
2021/11/21 03:30:23;;;;;;;9.50;7.40;;;;;;;3.63;81.96;99222.75;5086079;28;20244;-82
2021/11/21 03:32:51;;;;;;;9.53;7.70;;;;;;;3.68;82.02;99223.03;5083675;28;20225;-81
2021/11/21 03:35:19;;;;;;;12.27;7.60;;;;;;;3.66;81.91;99223.22;5084276;28;20307;-81
2021/11/21 03:37:47;;;;;;;8.50;7.37;;;;;;;3.71;81.85;99231.44;5083444;28;20579;-82
2021/11/21 03:40:16;;;;;;;8.57;7.30;;;;;;;3.67;82.29;99222.22;5083561;28;20233;-82
2021/11/21 03:42:45;;;;;;;8.73;7.57;;;;;;;3.71;81.91;99231.44;5051494;28;20246;-82
2021/11/21 03:45:16;;;;;;;8.97;7.40;;;;;;;3.70;81.61;99228.94;5085304;28;20228;-82
2021/11/21 03:47:58;;;;;;;9.07;7.67;;;;;;;3.69;81.53;99225.47;5084614;28;20228;-82
2021/11/21 03:50:26;;;;;;;9.77;7.93;;;;;;;3.64;81.48;99219.13;5070459;28;20220;-81
2021/11/21 03:52:53;;;;;;;9.63;7.87;;;;;;;3.63;81.52;99207.69;5069649;28;20616;-82
2021/11/21 03:55:21;;;;;;;10.73;7.83;;;;;;;3.55;81.74;99197.19;5087768;22;20212;-82
2021/11/21 03:57:49;;;;;;;10.70;8.57;;;;;;;3.63;82.10;99213.00;5030023;28;20229;-82
2021/11/21 04:00:21;;;;;;;10.20;7.93;;;;;;;3.70;82.14;99223.66;5029096;28;20222;-82
2021/11/21 04:02:51;;;;;;;10.07;7.93;;;;;;;3.69;82.12;99216.69;5045442;28;20230;-82
2021/11/21 04:05:20;;;;;;;10.10;8.20;;;;;;;3.60;81.95;99196.63;5047079;28;20189;-82
2021/11/21 04:07:50;;;;;;;9.57;8.50;;;;;;;3.64;82.03;99203.22;5044743;28;20213;-83
2021/11/21 04:10:24;;;;;;;11.00;8.23;;;;;;;3.66;81.84;99201.19;5046355;28;20241;-82
2021/11/21 04:12:55;;;;;;;10.80;8.17;;;;;;;3.75;82.03;99208.03;5048052;28;20190;-82
2021/11/21 04:15:29;;;;;;;9.07;7.40;;;;;;;3.80;82.31;99203.00;5016852;28;20230;-82
2021/11/21 04:18:17;;;;;;;9.47;7.50;;;;;;;3.78;82.03;99199.72;5038397;28;20231;-81
2021/11/21 04:20:47;;;;;;;9.77;7.77;;;;;;;3.78;81.93;99202.38;5052260;28;20289;-82
2021/11/21 04:23:17;;;;;;;8.27;7.27;;;;;;;3.77;81.97;99200.72;5051924;28;20225;-82
2021/11/21 04:26:08;;;;;;;9.73;7.57;;;;;;;3.73;81.84;99202.94;5090118;23;20232;-81
2021/11/21 04:28:57;;;;;;;9.03;7.43;;;;;;;3.72;82.23;99187.22;5091894;28;20235;-82
2021/11/21 04:31:36;;;;;;;8.33;7.33;;;;;;;3.74;82.31;99183.34;5093069;28;20180;-82
2021/11/21 04:34:25;;;;;;;9.00;7.43;;;;;;;3.75;82.09;99179.69;5092767;28;20227;-82
2021/11/21 04:36:59;;;;;;;8.70;7.03;;;;;;;3.81;81.99;99186.91;5074933;28;20208;-81
2021/11/21 04:39:36;;;;;;;10.73;7.70;;;;;;;3.84;82.31;99188.34;5075394;28;20228;-82
2021/11/21 04:42:37;;;;;;;9.60;7.37;;;;;;;3.87;82.37;99183.50;5077430;23;20229;-82
2021/11/21 04:45:27;;;;;;;9.03;7.67;;;;;;;3.85;82.29;99174.94;5081712;23;20243;-82
2021/11/21 04:48:16;;;;;;;8.47;6.63;;;;;;;3.91;82.66;99179.50;5094471;28;20220;-81
2021/11/21 04:51:07;;;;;;;9.73;7.53;;;;;;;3.92;82.72;99173.16;5095137;28;20255;-82
2021/11/21 04:53:42;;;;;;;9.33;7.30;;;;;;;3.97;82.41;99168.09;5096590;28;20181;-81
2021/11/21 04:56:14;;;;;;;8.50;7.60;;;;;;;4.03;82.28;99163.06;5103291;22;20221;-82
2021/11/21 04:58:41;;;;;;;10.70;7.83;;;;;;;3.95;82.23;99146.28;5096878;28;20246;-82
2021/11/21 05:01:10;;;;;;;8.80;7.43;;;;;;;4.01;82.11;99142.06;5102350;22;20236;-81
2021/11/21 05:03:39;;;;;;;8.90;7.33;;;;;;;4.07;81.78;99151.91;5096071;28;20212;-82
2021/11/21 05:06:10;;;;;;;8.83;7.60;;;;;;;4.12;82.05;99146.03;5077371;28;20224;-82
2021/11/21 05:08:42;;;;;;;9.43;7.63;;;;;;;4.12;81.87;99146.84;5094945;28;20224;-81
2021/11/21 05:11:28;;;;;;;9.77;7.20;;;;;;;4.14;81.79;99138.72;5081346;28;20233;-81
2021/11/21 05:13:59;;;;;;;9.23;7.37;;;;;;;4.12;81.83;99135.41;5095305;28;20193;-82
2021/11/21 05:16:53;;;;;;;8.37;7.17;;;;;;;4.19;81.73;99150.41;5103251;22;20208;-81
2021/11/21 05:19:44;;;;;;;8.07;7.00;;;;;;;4.12;81.57;99133.59;5098186;28;20234;-81
2021/11/21 05:22:22;;;;;;;7.90;6.90;;;;;;;4.15;80.94;99129.75;5110644;22;20212;-82
2021/11/21 05:25:08;;;;;;;7.50;6.47;;;;;;;4.18;80.86;99130.19;5080627;28;20592;-81
2021/11/21 05:27:35;;;;;;;9.13;6.90;;;;;;;4.19;80.97;99129.19;5080404;28;20200;-82
2021/11/21 05:30:07;;;;;;;7.53;6.73;;;;;;;4.18;81.26;99126.72;5097063;28;20220;-82
2021/11/21 05:32:36;;;;;;;9.10;7.23;;;;;;;4.14;80.98;99120.16;5095722;22;20225;-83
2021/11/21 05:35:20;;;;;;;8.07;6.90;;;;;;;4.21;80.99;99123.66;5063955;23;20241;-81
2021/11/21 05:38:11;;;;;;;8.07;6.97;;;;;;;4.20;81.19;99117.53;5017482;28;20619;-83
2021/11/21 05:41:24;;;;;;;7.70;6.87;;;;;;;4.19;80.78;99105.31;5037948;28;20222;-82
2021/11/21 05:43:56;;;;;;;7.60;6.80;;;;;;;4.18;80.88;99092.25;5075354;23;20244;-82
2021/11/21 05:46:38;;;;;;;7.80;6.57;;;;;;;4.25;81.31;99098.41;5076561;28;20225;-82
2021/11/21 05:49:20;;;;;;;8.03;6.77;;;;;;;4.26;81.12;99098.22;5076433;28;20471;-81
2021/11/21 05:52:09;;;;;;;7.57;6.77;;;;;;;4.29;80.76;99097.81;5074712;28;20260;-82
2021/11/21 05:55:10;;;;;;;7.90;6.90;;;;;;;4.30;81.01;99104.78;5075072;28;20241;-81
2021/11/21 05:57:41;;;;;;;9.53;7.40;;;;;;;4.27;80.97;99096.41;5059036;28;20209;-82
2021/11/21 06:00:41;;;;;;;12.43;10.60;;;;;;;4.36;81.37;99104.03;5076273;28;20243;-83
2021/11/21 06:03:15;;;;;;;10.30;9.20;;;;;;;4.39;81.39;99102.81;5077010;28;20232;-82
2021/11/21 06:06:00;;;;;;;9.17;7.57;;;;;;;4.38;81.14;99099.34;5099179;23;20228;-82
2021/11/21 06:09:13;;;;;;;8.23;6.90;;;;;;;4.41;80.48;99092.84;5088858;23;20225;-82
2021/11/21 06:12:29;;;;;;;8.87;7.40;;;;;;;4.37;81.19;99075.66;5103426;22;20243;-81
2021/11/21 06:15:11;;;;;;;9.37;7.60;;;;;;;4.44;80.62;99087.94;5093946;22;20207;-83
2021/11/21 06:17:59;;;;;;;9.63;7.37;;;;;;;4.47;81.01;99075.34;5071774;22;20235;-83
2021/11/21 06:20:29;;;;;;;7.97;6.90;;;;;;;4.38;81.18;99056.09;5078751;28;20208;-82
2021/11/21 06:22:56;;;;;;;8.50;7.43;;;;;;;4.54;81.17;99077.00;5095976;28;20221;-83
2021/11/21 06:25:26;;;;;;;7.80;6.90;;;;;;;4.57;80.71;99075.81;5076871;28;20235;-82
2021/11/21 06:27:57;;;;;;;8.93;7.47;;;;;;;4.60;80.73;99072.75;5078612;28;20179;-82
2021/11/21 06:30:27;;;;;;;10.17;7.93;;;;;;;4.60;80.62;99064.78;5095417;28;20193;-82
2021/11/21 06:32:54;;;;;;;8.40;7.07;;;;;;;4.59;80.64;99063.16;5094894;28;20217;-81
2021/11/21 06:35:23;;;;;;;10.27;7.80;;;;;;;4.61;80.62;99061.97;5094942;28;20217;-82
2021/11/21 06:37:54;;;;;;;8.47;7.40;;;;;;;4.67;81.02;99069.13;5093603;28;20212;-83
2021/11/21 06:40:30;;;;;;;9.77;7.50;;;;;;;4.68;80.34;99048.72;5102562;23;20207;-81
2021/11/21 06:43:17;;;;;;;9.17;7.30;;;;;;;4.77;80.46;99058.16;5078032;28;20205;-82
2021/11/21 06:46:04;;;;;;;9.23;7.70;;;;;;;4.82;80.53;99059.22;5098057;28;20216;-82
2021/11/21 06:48:52;;;;;;;9.63;7.43;;;;;;;4.80;80.75;99047.97;5096531;28;20234;-82
2021/11/21 06:51:53;;;;;;;11.47;7.93;;;;;;;4.86;80.75;99038.41;5096200;28;20232;-82
2021/11/21 06:54:44;;;;;;;8.37;7.33;;;;;;;4.95;80.23;99047.00;5077881;28;20247;-83
2021/11/21 06:57:15;;;;;;;12.27;8.30;;;;;;;5.04;80.21;99048.50;5079105;28;20221;-82
2021/11/21 06:59:43;;;;;;;10.93;8.30;;;;;;;4.97;80.00;99019.25;5079068;23;20234;-83
2021/11/21 07:02:30;;;;;;;9.27;7.63;;;;;;;5.01;80.17;99023.16;5056178;28;20256;-81
2021/11/21 07:05:37;;;;;;;10.10;8.20;;;;;;;5.20;79.94;99046.31;5089750;22;20232;-82
2021/11/21 07:08:34;;;;;;;10.90;8.10;;;;;;;5.26;80.00;99036.72;5096805;28;20203;-82
2021/11/21 07:11:07;;;;;;;10.67;8.67;;;;;;;5.31;79.84;99036.94;5081032;28;20237;-83
2021/11/21 07:13:38;;;;;;;9.77;8.30;;;;;;;5.31;79.51;99032.47;5180693;22;20216;-82
2021/11/21 07:16:14;;;;;;;11.07;8.50;;;;;;;5.34;79.43;99020.59;5075694;28;20199;-82
2021/11/21 07:18:58;;;;;;;9.23;7.97;;;;;;;5.46;79.29;99036.78;5165123;23;20224;-82
2021/11/21 07:21:50;;;;;;;10.13;8.20;;;;;;;5.50;79.01;99030.88;5074840;28;20209;-81
2021/11/21 07:24:44;;;;;;;9.80;7.73;;;;;;;5.57;79.12;99021.06;5086683;28;20200;-83
2021/11/21 07:27:17;;;;;;;11.70;7.97;;;;;;;5.67;78.20;99042.75;5095616;28;20169;-84
2021/11/21 07:29:52;;;;;;;10.77;7.90;;;;;;;5.64;77.35;99032.53;5096560;28;20192;-82
2021/11/21 07:32:46;;;;;;;10.03;8.27;;;;;;;5.80;77.94;99041.09;5094486;28;20265;-82
2021/11/21 07:35:37;;;;;;;11.73;8.20;;;;;;;5.88;77.55;99039.09;5078270;28;20208;-82
2021/11/21 07:38:15;;;;;;;11.93;9.33;;;;;;;5.92;77.76;99023.59;5095062;28;20703;-83
2021/11/21 07:41:33;;;;;;;11.10;9.07;;;;;;;6.02;76.94;99035.44;5096028;28;20186;-82
2021/11/21 07:44:04;;;;;;;11.50;8.03;;;;;;;6.14;76.60;99035.66;5095086;28;20225;-84
2021/11/21 07:46:53;;;;;;;12.23;9.27;;;;;;;6.16;76.02;99030.91;5094970;28;20315;-83
2021/11/21 07:49:40;;;;;;;12.37;9.00;;;;;;;6.16;76.02;99030.91;5094894;28;20192;-84
2021/11/21 07:52:12;;;;;;;13.27;9.97;;;;;;;6.16;76.71;99022.94;5105856;22;20241;-82
2021/11/21 07:54:48;;;;;;;15.53;9.97;;;;;;;6.26;76.64;99039.31;5056887;28;20229;-83
2021/11/21 07:57:15;;;;;;;14.53;9.43;;;;;;;6.36;77.36;99034.38;5074755;28;20237;-83
2021/11/21 08:00:08;;;;;;;14.67;10.33;;;;;;;6.54;76.02;99047.88;5091736;23;20890;-83
2021/11/21 08:02:44;;;;;;;14.50;10.07;;;;;;;6.61;76.50;99045.19;5072432;28;20248;-85
2021/11/21 08:05:12;;;;;;;13.83;10.00;;;;;;;6.63;76.04;99030.66;5105308;22;20294;-84
2021/11/21 08:07:55;;;;;;;15.93;10.83;;;;;;;6.77;76.20;99036.75;5079685;28;20177;-84
2021/11/21 08:10:22;;;;;;;17.30;11.23;;;;;;;6.83;76.24;99035.91;5099670;22;20228;-83
2021/11/21 08:12:50;;;;;;;16.57;11.23;;;;;;;6.81;75.97;99029.97;5061248;28;20180;-84
2021/11/21 08:15:24;;;;;;;17.60;11.07;;;;;;;6.94;75.59;99029.97;5084087;22;20226;-82
2021/11/21 08:18:00;;;;;;;15.83;11.13;;;;;;;6.90;76.53;99006.63;5054263;28;20182;-83
2021/11/21 08:20:30;;;;;;;14.93;10.80;;;;;;;6.97;75.17;99016.22;5054281;28;20218;-83
2021/11/21 08:23:01;;;;;;;15.43;10.93;;;;;;;7.14;75.52;99024.53;5052854;28;20285;-83
2021/11/21 08:25:55;;;;;;;16.53;10.53;;;;;;;7.16;76.08;99013.66;5053389;28;20213;-81
2021/11/21 08:28:29;;;;;;;16.80;11.00;;;;;;;7.27;75.81;99021.81;5053733;28;20178;-83
2021/11/21 08:31:01;;;;;;;16.20;12.17;;;;;;;7.32;75.49;99007.84;5054035;28;20218;-83
2021/11/21 08:33:32;;;;;;;19.53;12.20;;;;;;;7.50;74.68;99021.28;5075006;23;20228;-83
2021/11/21 08:36:15;;;;;;;19.63;13.27;;;;;;;7.57;75.06;99014.03;5076632;28;20228;-84
2021/11/21 08:38:53;;;;;;;20.37;13.53;;;;;;;7.54;75.08;99006.47;5087790;28;20232;-83
2021/11/21 08:41:57;;;;;;;18.00;13.20;;;;;;;7.45;75.49;99007.78;5084900;28;20312;-83
2021/11/21 08:44:46;;;;;;;19.87;13.90;;;;;;;7.57;75.07;99019.38;5091934;28;20231;-83
2021/11/21 08:47:23;;;;;;;20.23;14.63;;;;;;;7.51;74.99;99012.25;5184520;22;20218;-81
2021/11/21 08:50:30;;;;;;;19.73;14.17;;;;;;;7.62;75.55;99013.41;5052786;28;20244;-81
2021/11/21 08:53:30;;;;;;;22.07;15.23;;;;;;;7.64;75.37;99014.00;5077533;23;20302;-82
2021/11/21 08:56:23;;;;;;;21.50;15.03;;;;;;;7.70;75.12;99005.16;5070960;28;20233;-81
2021/11/21 08:59:09;;;;;;;21.70;14.43;;;;;;;7.79;74.79;99007.31;5075099;23;20233;-83
2021/11/21 09:02:02;;;;;;;21.93;14.67;;;;;;;7.83;73.75;99003.22;5072783;28;20227;-83
2021/11/21 09:04:46;;;;;;;21.87;15.73;;;;;;;7.85;73.97;98986.97;5072638;28;20233;-83
2021/11/21 09:07:18;;;;;;;23.40;15.83;;;;;;;7.94;73.52;98996.34;5069506;28;20195;-83
2021/11/21 09:09:55;;;;;;;20.17;15.10;;;;;;;7.90;72.58;98995.97;5050257;28;20226;-83
2021/11/21 09:12:24;;;;;;;20.27;15.37;;;;;;;7.83;73.01;98991.72;5049556;28;20241;-83
2021/11/21 09:14:59;;;;;;;22.23;16.33;;;;;;;7.72;73.35;99001.22;5049711;28;20248;-83
2021/11/21 09:17:33;;;;;;;20.90;15.40;;;;;;;7.75;73.97;99005.28;5059205;28;20240;-83
2021/11/21 09:20:43;;;;;;;21.53;15.37;;;;;;;7.86;73.46;99002.75;5069506;28;20222;-83
2021/11/21 09:23:26;;;;;;;21.70;15.47;;;;;;;7.89;73.98;98993.50;5070074;28;20236;-83
2021/11/21 09:26:12;;;;;;;21.63;15.80;;;;;;;7.89;73.06;98994.31;5068454;28;20288;-83
2021/11/21 09:28:47;;;;;;;20.63;15.47;;;;;;;7.99;72.62;98980.50;5068978;28;20247;-85
2021/11/21 09:31:22;;;;;;;21.87;15.83;;;;;;;7.89;73.11;98967.66;5068151;28;20229;-84
2021/11/21 09:34:16;;;;;;;20.07;15.43;;;;;;;8.06;72.72;98978.59;5071728;28;20229;-84
2021/11/21 09:37:15;;;;;;;19.63;14.57;;;;;;;8.29;71.68;98975.31;5071993;28;20245;-83
2021/11/21 09:40:01;;;;;;;19.53;14.70;;;;;;;8.40;70.13;98970.06;5055930;28;20684;-83
2021/11/21 09:42:43;;;;;;;18.63;14.00;;;;;;;8.48;70.75;98968.16;5072085;28;20554;-82
2021/11/21 09:45:17;;;;;;;18.33;13.83;;;;;;;8.55;70.12;98963.53;5071819;28;20236;-83
2021/11/21 09:47:52;;;;;;;17.83;13.37;;;;;;;8.57;70.17;98953.47;5070765;28;20229;-83
2021/11/21 09:50:30;;;;;;;16.70;13.33;;;;;;;8.61;69.51;98952.81;5086518;23;20223;-83
2021/11/21 09:53:06;;;;;;;16.97;13.80;;;;;;;8.64;69.79;98947.00;5095327;28;20246;-84
2021/11/21 09:55:40;;;;;;;22.70;15.73;;;;;;;8.68;69.42;98942.84;5111612;28;20318;-84
2021/11/21 09:58:10;;;;;;;19.53;15.27;;;;;;;8.67;69.20;98935.91;5109952;28;20244;-85
2021/11/21 10:00:40;;;;;;;19.90;15.37;;;;;;;8.52;69.42;98935.44;5111672;28;20221;-83
2021/11/21 10:03:18;;;;;;;21.50;15.23;;;;;;;8.34;69.48;98922.94;5110565;28;20205;-83
2021/11/21 10:05:55;;;;;;;20.57;15.27;;;;;;;8.36;70.41;98930.69;5125854;22;20228;-83
2021/11/21 10:08:28;;;;;;;20.33;15.37;;;;;;;8.37;70.17;98919.81;5073065;28;20227;-83
2021/11/21 10:11:05;;;;;;;19.43;14.47;;;;;;;8.36;71.06;98917.34;5057563;28;20224;-83
2021/11/21 10:13:36;;;;;;;20.80;15.10;;;;;;;8.46;70.04;98906.97;5091067;28;20236;-84
2021/11/21 10:16:18;;;;;;;22.40;16.83;;;;;;;8.51;69.68;98909.78;5073201;28;20251;-83
2021/11/21 10:19:06;;;;;;;19.63;14.57;;;;;;;8.54;69.39;98904.00;5092128;22;20252;-83
2021/11/21 10:22:00;;;;;;;22.07;15.13;;;;;;;8.52;69.07;98887.41;5087459;28;20292;-82
2021/11/21 10:24:50;;;;;;;19.80;14.77;;;;;;;8.66;69.18;98886.19;5071519;28;20244;-84
2021/11/21 10:27:19;;;;;;;22.30;15.90;;;;;;;8.79;69.21;98883.34;5071078;28;20197;-83
2021/11/21 10:29:54;;;;;;;19.63;14.60;;;;;;;8.83;68.64;98881.03;5072152;28;20182;-83
2021/11/21 10:32:59;;;;;;;24.90;15.67;;;;;;;9.00;68.31;98881.22;5072176;28;20237;-83
2021/11/21 10:35:29;;;;;;;22.30;15.20;;;;;;;9.09;67.60;98894.03;5072996;28;20214;-85
2021/11/21 10:38:02;;;;;;;24.67;16.10;;;;;;;9.04;67.99;98888.56;5111374;23;20297;-83
2021/11/21 10:40:38;;;;;;;24.77;16.60;;;;;;;8.97;68.24;98884.31;5106479;22;20263;-85
2021/11/21 10:43:06;;;;;;;24.27;16.43;;;;;;;8.94;68.19;98876.78;5074467;28;20224;-84
2021/11/21 10:45:50;;;;;;;25.93;18.37;;;;;;;8.80;68.92;98870.81;5106019;22;20233;-83
2021/11/21 10:48:35;;;;;;;22.50;16.63;;;;;;;8.84;69.38;98867.44;5109539;28;20225;-83
2021/11/21 10:51:04;;;;;;;21.17;16.40;;;;;;;8.87;68.92;98871.50;5111041;28;20228;-83
2021/11/21 10:53:33;;;;;;;21.63;15.03;;;;;;;8.87;68.78;98871.50;5111051;28;20251;-83
2021/11/21 10:56:13;;;;;;;24.50;16.27;;;;;;;8.65;69.62;98870.38;5093420;28;20228;-82
2021/11/21 10:58:50;;;;;;;22.83;15.83;;;;;;;8.51;69.05;98851.06;5110673;28;20239;-85
2021/11/21 11:01:25;;;;;;;23.13;15.77;;;;;;;8.59;69.49;98865.94;5110376;28;20232;-85
2021/11/21 11:04:08;;;;;;;22.00;16.27;;;;;;;8.58;69.77;98850.97;5111188;28;20249;-84
2021/11/21 11:06:39;;;;;;;22.63;15.30;;;;;;;8.59;69.33;98852.59;5110912;28;20216;-84
2021/11/21 11:09:33;;;;;;;19.37;14.10;;;;;;;8.61;68.83;98855.84;5092953;28;20590;-83
2021/11/21 11:12:03;;;;;;;21.60;14.20;;;;;;;8.59;69.44;98847.25;5111864;28;20231;-85
2021/11/21 11:14:36;;;;;;;20.20;14.27;;;;;;;8.63;68.48;98848.44;5108906;28;20228;-84
2021/11/21 11:17:16;;;;;;;22.77;14.07;;;;;;;8.70;69.08;98849.16;5094137;28;20241;-85
2021/11/21 11:19:45;;;;;;;20.57;15.10;;;;;;;8.63;68.17;98835.88;5111689;28;20268;-84
2021/11/21 11:22:12;;;;;;;24.27;15.80;;;;;;;8.71;68.80;98832.91;5108008;28;20212;-84
2021/11/21 11:24:43;;;;;;;21.80;14.43;;;;;;;8.88;68.62;98840.28;5110649;28;20245;-82
2021/11/21 11:27:48;;;;;;;21.63;14.83;;;;;;;8.88;68.11;98834.94;5092686;28;20223;-84
2021/11/21 11:30:18;;;;;;;20.43;14.13;;;;;;;8.98;67.76;98828.00;5110571;28;20204;-83
2021/11/21 11:33:04;;;;;;;20.20;13.57;;;;;;;8.91;67.55;98821.97;5105583;28;20635;-83
2021/11/21 11:35:35;;;;;;;19.33;13.47;;;;;;;8.99;67.61;98826.97;5109658;28;20649;-83
2021/11/21 11:38:19;;;;;;;19.30;13.47;;;;;;;9.07;67.18;98823.97;5093403;28;20227;-84
2021/11/21 11:41:13;;;;;;;19.83;14.33;;;;;;;9.02;66.12;98826.50;5115854;23;20300;-84
2021/11/21 11:43:47;;;;;;;17.50;13.57;;;;;;;9.02;67.95;98825.69;5075123;28;20256;-83
2021/11/21 11:46:29;;;;;;;19.50;13.63;;;;;;;8.97;67.33;98825.56;5078425;28;20219;-83
2021/11/21 11:49:20;;;;;;;18.87;13.87;;;;;;;8.93;67.05;98811.03;5091715;28;20223;-82
2021/11/21 11:52:03;;;;;;;20.70;15.00;;;;;;;8.83;67.17;98814.25;5107688;28;20201;-82
2021/11/21 11:54:32;;;;;;;20.47;14.57;;;;;;;8.81;67.53;98800.31;5109888;28;20544;-85
2021/11/21 11:57:37;;;;;;;21.00;15.53;;;;;;;8.63;68.00;98800.38;5107980;28;20254;-83
2021/11/21 12:00:37;;;;;;;21.13;14.80;;;;;;;8.56;68.09;98797.78;5107742;28;20229;-84
2021/11/21 12:03:37;;;;;;;21.83;15.57;;;;;;;8.58;69.07;98794.91;5092608;28;20276;-82
2021/11/21 12:06:06;;;;;;;20.90;15.27;;;;;;;8.54;69.08;98791.84;5075258;28;20229;-83
2021/11/21 12:08:43;;;;;;;20.20;15.63;;;;;;;8.56;69.14;98795.13;5109407;28;20223;-82
2021/11/21 12:12:01;;;;;;;20.60;14.83;;;;;;;8.57;68.65;98791.41;5091603;28;20232;-84
2021/11/21 12:14:50;;;;;;;21.53;15.13;;;;;;;8.51;68.93;98795.00;5088104;28;20289;-84
2021/11/21 12:17:32;;;;;;;21.80;15.40;;;;;;;8.45;69.59;98785.19;5089291;28;20225;-84
2021/11/21 12:20:01;;;;;;;21.33;15.10;;;;;;;8.36;69.69;98770.53;5087850;28;20199;-83
2021/11/21 12:22:29;;;;;;;22.57;15.60;;;;;;;8.45;69.19;98789.72;5090068;28;20728;-82
2021/11/21 12:25:35;;;;;;;19.43;15.20;;;;;;;8.40;69.57;98788.56;5088007;28;20230;-83
2021/11/21 12:28:09;;;;;;;21.37;16.10;;;;;;;8.42;69.94;98792.84;4972444;28;20255;-85
2021/11/21 12:30:40;;;;;;;22.40;16.10;;;;;;;8.43;69.77;98779.28;5080359;28;20203;-85
2021/11/21 12:33:28;;;;;;;22.30;16.20;;;;;;;8.48;69.43;98784.78;5073281;28;20224;-84
2021/11/21 12:35:58;;;;;;;22.30;16.30;;;;;;;8.44;70.54;98782.78;5071317;28;20596;-83
2021/11/21 12:38:32;;;;;;;27.10;18.43;;;;;;;8.42;69.83;98783.00;5089486;28;20268;-83